Terminal Aerodrome Forecast
Issued by NWS Cleveland, OH

Home | Current Version | Previous Version | Text Only | Print | Product List | Glossary On
Versions: 1 2 3 4 5 6 7 8 9 10 11 12 13 14 15 16 17 18 19
000
FTUS41 KCLE 271611 AAA
TAFTOL
TAF AMD
KTOL 271611Z 2716/2812 12004KT P6SM BKN045
     FM271700 14007KT P6SM VCSH BKN040 BKN120
      TEMPO 2717/2720 5SM -TSRA BKN028CB OVC045
     FM272300 15005KT P6SM BKN050 BKN100
     FM280700 23003KT 4SM BR VCSH BKN050=

USA.gov is the U.S. government's official web portal to all federal, state and local government web resources and services.